CheckWX is a tool to help pilots better visualize weather data.  It is not intended as a substitute for an official pre-flight weather briefing.

08:53:46 UTC

KJAN TAF
Jackson-Medgar Wiley Evers International Airport
Jackson, Mississippi, USA
KJAN 180526Z 1806/1906 14005KT P6SM SCT100 BKN250 FM181000 18005KT 6SM BR VCSH SCT007 BKN012 FM181400 22006KT P6SM BKN030 FM182000 23008KT P6SM VCTS BKN040CB BKN100 FM190000 20003KT P6SM SCT100 BKN250

Jun-18@
06:00 UTC

Jun-18 @ 06:00 UTC

Jun-18@
10:00 UTC

Jun-18 @ 10:00 UTC

KJAN 180526Z 1806/1906 14005KT P6SM SCT100 BKN250
Wind
  • 140° at 5 KTS
Cloud Levels
  • Scattered at 10,000' AGL
  • Broken at 25,000' AGL

Jun-18@
10:00 UTC

Jun-18 @ 10:00 UTC

Jun-18@
14:00 UTC

Jun-18 @ 14:00 UTC

FM181000 18005KT 6SM BR VCSH SCT007 BKN012

From

From Standard forecast or significant change

Wind
  • 180° at 5 KTS
Conditions
Mist
Cloud Levels
  • Scattered at 700' AGL
  • Broken at 1,200' AGL

Jun-18@
14:00 UTC

Jun-18 @ 14:00 UTC

Jun-18@
20:00 UTC

Jun-18 @ 20:00 UTC

FM181400 22006KT P6SM BKN030

From

From Standard forecast or significant change

Wind
  • 220° at 6 KTS
Cloud Levels
  • Broken at 3,000' AGL

Jun-18@
20:00 UTC

Jun-18 @ 20:00 UTC

Jun-19@
00:00 UTC

Jun-19 @ 00:00 UTC

FM182000 23008KT P6SM VCTS BKN040CB BKN100

From

From Standard forecast or significant change

Wind
  • 230° at 8 KTS
Conditions
Area Thunderstorm
Cloud Levels
  • Broken at 4,000' AGL
  • Broken at 10,000' AGL

Jun-19@
00:00 UTC

Jun-19 @ 00:00 UTC

Jun-19@
06:00 UTC

Jun-19 @ 06:00 UTC

FM190000 20003KT P6SM SCT100 BKN250

From

From Standard forecast or significant change

Wind
  • 200° at 3 KTS
Cloud Levels
  • Scattered at 10,000' AGL
  • Broken at 25,000' AGL